Time;durP1;ratioP1;P1;durP2;ratioP2;P2;SDS_P1;SDS_P2;PMS_P1;PMS_P2;Temp;Humidity;BMP_temperature;BMP_pressure;BME280_temperature;BME280_humidity;BME280_pressure;Samples;Min_cycle;Max_cycle;Signal;HPM_P1;HPM_P2
2022/12/27 00:00:58;;;;;;;23.25;12.23;;;;;;;14.96;72.86;99898.88;5093220;28;20119;-47
2022/12/27 00:03:24;;;;;;;14.65;11.70;;;;;;;14.94;72.07;99903.56;5094466;28;20027;-47
2022/12/27 00:05:49;;;;;;;24.05;21.52;;;;;;;14.83;72.09;99910.25;5093116;28;20493;-47
2022/12/27 00:08:15;;;;;;;30.25;27.30;;;;;;;14.92;72.19;99906.38;5094427;28;20024;-47
2022/12/27 00:10:41;;;;;;;21.55;19.27;;;;;;;15.19;71.70;99909.09;5094335;28;20028;-47
2022/12/27 00:13:06;;;;;;;12.32;11.00;;;;;;;15.47;70.44;99895.72;5092978;28;20486;-47
2022/12/27 00:15:34;;;;;;;9.30;4.90;;;;;;;15.55;68.79;99902.66;5092884;28;20126;-47
2022/12/27 00:17:59;;;;;;;7.43;3.92;;;;;;;15.27;68.47;99903.66;5094149;28;20047;-47
2022/12/27 00:20:25;;;;;;;11.10;8.85;;;;;;;14.91;68.71;99903.94;5094394;28;20028;-47
2022/12/27 00:22:51;;;;;;;4.90;2.75;;;;;;;14.53;68.27;99899.91;5092800;28;20013;-47
2022/12/27 00:25:16;;;;;;;23.35;10.68;;;;;;;14.07;69.33;99897.00;5092731;28;20031;-47
2022/12/27 00:27:42;;;;;;;15.80;7.00;;;;;;;14.04;70.84;99907.94;5093779;28;20140;-47
2022/12/27 00:30:08;;;;;;;13.80;8.43;;;;;;;14.15;70.93;99894.22;5092605;28;20023;-47
2022/12/27 00:32:34;;;;;;;17.52;13.60;;;;;;;14.23;70.87;99903.81;5093890;28;20054;-47
2022/12/27 00:34:59;;;;;;;13.23;9.98;;;;;;;14.29;70.83;99897.75;5093842;28;20425;-47
2022/12/27 00:37:25;;;;;;;15.80;13.43;;;;;;;14.32;70.27;99900.00;5093965;28;20103;-47
2022/12/27 00:39:50;;;;;;;10.75;7.03;;;;;;;14.28;70.27;99896.13;5093759;28;20489;-47
2022/12/27 00:42:16;;;;;;;30.08;24.95;;;;;;;14.17;70.41;99892.19;5093691;28;20367;-47
2022/12/27 00:44:42;;;;;;;13.85;10.20;;;;;;;14.30;70.32;99896.72;5092388;28;20024;-47
2022/12/27 00:47:08;;;;;;;12.70;5.88;;;;;;;14.50;69.75;99900.28;5093590;28;20028;-47
2022/12/27 00:49:34;;;;;;;10.27;5.35;;;;;;;14.57;68.42;99898.53;5075172;28;20111;-47
2022/12/27 00:51:59;;;;;;;18.02;10.15;;;;;;;14.35;67.97;99894.34;5093455;28;20127;-47
2022/12/27 00:54:25;;;;;;;20.98;12.90;;;;;;;14.26;67.93;99898.94;5093519;28;20073;-47
2022/12/27 00:56:50;;;;;;;9.40;5.97;;;;;;;14.44;68.40;99894.97;5092101;28;20103;-47
2022/12/27 00:59:16;;;;;;;13.88;6.47;;;;;;;14.51;68.59;99894.00;5092072;28;20016;-47
2022/12/27 01:01:42;;;;;;;15.02;10.05;;;;;;;14.63;68.49;99896.09;5093350;28;20482;-47
2022/12/27 01:04:07;;;;;;;14.43;9.00;;;;;;;14.71;68.39;99896.78;5093214;28;20024;-47
2022/12/27 01:06:34;;;;;;;15.52;11.52;;;;;;;14.81;67.94;99901.69;5091910;28;20032;-47
2022/12/27 01:09:01;;;;;;;32.65;26.05;;;;;;;14.91;67.59;99899.50;5093183;28;20020;-47
2022/12/27 01:11:27;;;;;;;17.38;10.82;;;;;;;15.12;67.49;99893.22;5091801;28;20020;-47
2022/12/27 01:13:55;;;;;;;11.85;7.40;;;;;;;15.32;66.54;99895.91;5093089;28;20403;-47
2022/12/27 01:16:23;;;;;;;25.45;15.02;;;;;;;15.33;65.69;99896.72;5091655;28;20353;-47
2022/12/27 01:18:49;;;;;;;22.65;16.85;;;;;;;15.20;65.66;99894.88;5092983;28;20441;-47
2022/12/27 01:21:17;;;;;;;15.38;13.02;;;;;;;15.01;65.67;99901.75;5093218;28;20028;-47
2022/12/27 01:23:43;;;;;;;15.30;9.65;;;;;;;14.93;66.07;99907.19;5091631;28;20028;-47
2022/12/27 01:26:19;;;;;;;15.90;14.23;;;;;;;14.96;65.74;99904.97;5092630;28;20559;-47
2022/12/27 01:28:45;;;;;;;20.85;18.65;;;;;;;14.84;65.87;99909.22;5092833;28;20073;-47
2022/12/27 01:31:17;;;;;;;14.77;11.73;;;;;;;14.54;65.57;99909.44;5091548;28;20085;-47
2022/12/27 01:33:43;;;;;;;33.80;30.58;;;;;;;14.16;65.46;99911.69;5075234;28;20028;-47
2022/12/27 01:36:12;;;;;;;10.80;8.05;;;;;;;13.86;66.25;99918.97;5091256;28;20028;-47
2022/12/27 01:38:38;;;;;;;13.77;12.20;;;;;;;13.80;66.95;99923.19;5092663;28;20030;-47
2022/12/27 01:42:50;;;;;;;10.68;9.52;;;;;;;13.74;66.67;99930.06;5091266;28;20111;-47
2022/12/27 01:43:49;;;;;;;10.23;8.65;;;;;;;13.71;67.27;99933.06;5092530;28;20031;-47
2022/12/27 01:46:15;;;;;;;28.83;21.27;;;;;;;13.77;67.41;99934.13;5092453;28;20521;-47
2022/12/27 01:48:41;;;;;;;17.65;9.57;;;;;;;13.77;68.19;99934.94;5091194;28;20052;-47
2022/12/27 01:51:09;;;;;;;37.78;31.48;;;;;;;13.74;68.37;99935.34;5092454;28;20051;-47
2022/12/27 01:53:42;;;;;;;13.20;8.20;;;;;;;13.87;68.59;99936.47;5091097;28;20486;-47
2022/12/27 01:56:18;;;;;;;12.60;8.60;;;;;;;14.08;69.12;99940.88;5092418;28;20070;-47
2022/12/27 01:58:46;;;;;;;16.63;12.77;;;;;;;14.32;68.13;99937.78;5074574;28;20400;-47
2022/12/27 02:01:22;;;;;;;14.27;9.75;;;;;;;14.38;67.26;99944.13;5090396;28;20543;-47
2022/12/27 02:03:53;;;;;;;30.52;27.30;;;;;;;14.27;67.06;99939.38;5090967;28;20035;-47
2022/12/27 02:06:21;;;;;;;17.27;13.82;;;;;;;14.20;67.79;99939.31;5092290;28;20024;-47
2022/12/27 02:08:52;;;;;;;10.63;7.75;;;;;;;14.42;67.55;99939.25;5090833;28;20393;-47
2022/12/27 02:11:52;;;;;;;15.25;13.05;;;;;;;14.71;67.22;99938.25;5092110;28;20073;-47
2022/12/27 02:14:19;;;;;;;21.42;14.88;;;;;;;14.96;66.69;99943.81;5092054;28;20040;-47
2022/12/27 02:16:45;;;;;;;5.50;4.55;;;;;;;14.97;65.46;99941.00;5092014;28;20111;-47
2022/12/27 02:19:29;;;;;;;7.97;5.45;;;;;;;14.38;65.05;99941.47;5092001;28;20032;-48
2022/12/27 02:22:12;;;;;;;11.20;6.82;;;;;;;13.83;65.86;99943.94;5090647;28;20023;-48
2022/12/27 02:24:53;;;;;;;9.63;7.30;;;;;;;13.38;66.99;99952.03;5092082;28;20085;-47
2022/12/27 02:27:32;;;;;;;26.25;23.45;;;;;;;13.47;68.75;99952.72;5090464;28;20076;-47
2022/12/27 02:30:06;;;;;;;8.38;6.18;;;;;;;13.73;67.74;99954.81;5090660;28;20024;-47
2022/12/27 02:32:31;;;;;;;19.17;10.68;;;;;;;13.62;67.29;99952.66;5091992;28;20055;-47
2022/12/27 02:35:20;;;;;;;9.95;6.25;;;;;;;13.53;67.99;99946.69;5091865;28;20567;-47
2022/12/27 02:38:20;;;;;;;26.80;16.73;;;;;;;13.83;68.42;99954.50;5090510;28;20028;-47
2022/12/27 02:58:45;;;;;;;18.27;15.80;;;;;;;14.81;64.75;99936.06;5029653;28;20033;-47
2022/12/27 03:04:47;;;;;;;9.75;5.32;;;;;;;14.43;65.19;99939.06;5029640;28;20041;-47
2022/12/27 03:07:18;;;;;;;12.48;8.15;;;;;;;14.30;66.05;99938.97;5029195;28;20041;-47
2022/12/27 03:16:04;;;;;;;12.77;10.88;;;;;;;13.51;66.92;99932.06;5033261;28;20043;-47
2022/12/27 03:18:54;;;;;;;10.60;5.85;;;;;;;13.42;66.59;99933.19;5016140;28;20029;-48
2022/12/27 03:27:16;;;;;;;234.60;213.05;;;;;;;12.84;69.99;99927.88;5051954;28;20048;-47
2022/12/27 03:35:19;;;;;;;17.45;11.65;;;;;;;11.76;70.96;99928.13;5095357;28;20054;-47
2022/12/27 03:38:04;;;;;;;15.55;13.70;;;;;;;11.43;72.29;99932.00;5093723;28;20103;-47
2022/12/27 03:43:37;;;;;;;19.60;17.63;;;;;;;10.97;74.61;99932.78;5095190;28;20081;-49
2022/12/27 03:46:35;;;;;;;14.05;11.70;;;;;;;11.08;74.91;99927.13;5093525;28;20106;-49
2022/12/27 03:49:15;;;;;;;27.98;23.48;;;;;;;11.03;74.66;99920.75;5080438;28;20040;-50
2022/12/27 03:51:54;;;;;;;13.23;9.23;;;;;;;11.07;74.61;99920.25;5093366;28;20119;-50
2022/12/27 03:54:25;;;;;;;14.50;11.32;;;;;;;11.12;75.08;99925.78;5093441;28;20032;-50
2022/12/27 03:57:04;;;;;;;15.45;11.25;;;;;;;11.35;75.16;99923.19;5094590;28;20028;-50
2022/12/27 03:59:30;;;;;;;8.52;7.55;;;;;;;11.38;74.28;99912.31;5094680;28;20464;-50
2022/12/27 04:01:56;;;;;;;19.25;8.05;;;;;;;11.31;74.25;99915.84;5093120;28;20028;-49
2022/12/27 04:04:22;;;;;;;46.47;41.70;;;;;;;11.14;74.20;99923.81;5094528;28;20032;-50
2022/12/27 04:06:48;;;;;;;32.22;28.85;;;;;;;11.13;74.73;99926.63;5093080;28;20568;-50
2022/12/27 04:36:37;;;;;;;24.83;18.23;;;;;;;10.44;75.36;99927.22;5093973;28;20023;-49
2022/12/27 04:39:03;;;;;;;19.17;13.77;;;;;;;10.16;76.10;99932.84;5093823;28;20020;-49
2022/12/27 04:55:22;;;;;;;18.88;16.90;;;;;;;9.65;79.78;99936.66;5093827;28;20568;-49
2022/12/27 04:57:48;;;;;;;14.88;11.10;;;;;;;9.63;79.25;99939.44;5092053;28;20020;-50
2022/12/27 05:03:03;;;;;;;25.40;19.30;;;;;;;10.14;80.75;99926.13;5093647;28;20524;-49
2022/12/27 05:05:29;;;;;;;88.45;79.15;;;;;;;10.54;80.37;99935.75;5093267;28;20028;-49
2022/12/27 05:16:09;;;;;;;44.78;35.90;;;;;;;11.97;76.48;99924.03;5091988;28;20112;-49
2022/12/27 05:18:35;;;;;;;47.15;42.30;;;;;;;12.08;75.61;99925.44;5091713;28;20504;-50
2022/12/27 05:21:05;;;;;;;68.53;50.25;;;;;;;11.95;74.53;99923.41;5092984;28;20081;-50
2022/12/27 05:26:23;;;;;;;67.57;59.47;;;;;;;11.71;74.20;99929.66;5092902;28;20587;-50
2022/12/27 05:28:51;;;;;;;69.15;46.25;;;;;;;11.59;75.49;99932.72;5091544;28;20028;-50
2022/12/27 05:31:19;;;;;;;67.25;17.42;;;;;;;11.41;74.75;99926.94;5093035;28;20401;-50
2022/12/27 05:33:44;;;;;;;192.80;174.70;;;;;;;11.14;75.88;99925.63;5092711;28;20032;-49
2022/12/27 05:36:10;;;;;;;83.63;75.63;;;;;;;11.32;76.75;99923.53;5091674;28;20387;-50
2022/12/27 05:38:36;;;;;;;81.10;72.70;;;;;;;11.54;76.55;99928.97;5092896;28;20040;-50
2022/12/27 05:41:03;;;;;;;104.80;94.43;;;;;;;11.74;76.28;99924.06;5091328;28;20119;-50
2022/12/27 05:43:29;;;;;;;27.58;23.52;;;;;;;11.98;75.37;99920.44;5092803;28;20103;-50
2022/12/27 05:45:54;;;;;;;52.85;47.38;;;;;;;12.16;74.58;99920.09;5091179;28;20031;-49
2022/12/27 05:48:21;;;;;;;31.40;25.23;;;;;;;11.98;73.48;99918.59;5074318;28;20028;-50
2022/12/27 05:50:47;;;;;;;14.02;11.98;;;;;;;11.65;73.15;99928.56;5092664;28;20039;-49
2022/12/27 05:53:13;;;;;;;12.18;8.45;;;;;;;11.30;73.60;99936.03;5091122;28;20020;-49
2022/12/27 05:55:39;;;;;;;15.77;10.80;;;;;;;11.02;73.58;99933.06;5092622;28;20023;-50
2022/12/27 05:58:05;;;;;;;14.52;11.50;;;;;;;10.69;73.65;99938.47;5092199;28;20046;-50
2022/12/27 06:00:30;;;;;;;22.35;16.27;;;;;;;10.45;74.43;99936.75;5090937;28;20024;-49
2022/12/27 06:02:56;;;;;;;78.20;70.40;;;;;;;10.26;75.01;99947.59;5092286;28;20078;-50
2022/12/27 06:05:22;;;;;;;12.63;8.15;;;;;;;10.08;75.39;99940.75;5092221;28;20111;-49
2022/12/27 06:07:47;;;;;;;29.58;20.45;;;;;;;9.72;75.63;99945.50;5090913;28;20035;-49
2022/12/27 06:10:13;;;;;;;22.77;15.43;;;;;;;9.46;76.18;99948.28;5092191;28;20103;-49
2022/12/27 06:12:38;;;;;;;25.55;20.17;;;;;;;9.25;76.69;99944.28;5090849;28;20020;-49
2022/12/27 06:15:05;;;;;;;17.80;11.35;;;;;;;9.06;77.23;99950.63;5090758;28;20473;-49
2022/12/27 06:17:31;;;;;;;54.60;45.70;;;;;;;9.02;78.25;99948.50;5090660;28;20055;-47
2022/12/27 06:19:57;;;;;;;49.67;44.88;;;;;;;9.25;78.56;99953.94;5090714;28;20027;-46
2022/12/27 06:22:23;;;;;;;32.03;28.30;;;;;;;9.51;78.91;99959.06;5091977;28;20035;-49
2022/12/27 06:24:49;;;;;;;34.42;27.20;;;;;;;9.85;78.34;99955.50;5092002;28;20375;-49
2022/12/27 06:27:14;;;;;;;46.65;34.95;;;;;;;10.16;77.70;99948.59;5091757;28;20052;-50
2022/12/27 06:29:40;;;;;;;30.35;16.80;;;;;;;10.31;76.35;99946.13;5090563;28;20024;-49
2022/12/27 06:32:06;;;;;;;36.47;26.85;;;;;;;10.51;76.35;99948.38;5090889;28;20025;-47
2022/12/27 06:34:31;;;;;;;48.80;25.90;;;;;;;10.82;75.30;99948.44;5090527;28;20020;-47
2022/12/27 06:36:57;;;;;;;46.55;33.75;;;;;;;11.06;73.89;99951.94;5091815;28;20056;-47
2022/12/27 06:39:22;;;;;;;68.47;57.38;;;;;;;11.11;73.77;99952.25;5091843;28;20058;-47
2022/12/27 06:41:49;;;;;;;35.70;23.63;;;;;;;11.07;72.70;99953.59;5091792;28;20024;-47
2022/12/27 06:44:15;;;;;;;96.63;83.15;;;;;;;10.89;72.18;99949.41;5091780;28;20042;-47
2022/12/27 06:46:40;;;;;;;25.52;13.43;;;;;;;10.94;73.20;99956.75;5092280;28;20468;-47
2022/12/27 06:49:06;;;;;;;47.03;33.97;;;;;;;11.01;72.71;99957.72;5094726;28;20494;-47
2022/12/27 06:51:32;;;;;;;120.45;107.55;;;;;;;11.02;72.54;99958.53;5095991;28;20077;-47
2022/12/27 06:53:58;;;;;;;54.92;47.58;;;;;;;11.10;72.03;99955.84;5094580;28;20028;-47
2022/12/27 06:56:24;;;;;;;13.05;8.32;;;;;;;10.99;71.57;99960.50;5094379;28;20401;-49
2022/12/27 06:58:50;;;;;;;20.95;16.67;;;;;;;10.71;71.63;99962.75;5095819;28;20144;-49
2022/12/27 07:01:19;;;;;;;10.38;4.05;;;;;;;10.35;70.94;99959.75;5095733;28;20024;-47
2022/12/27 07:04:01;;;;;;;202.55;17.15;;;;;;;9.72;71.45;99963.88;5094322;28;20048;-49
2022/12/27 07:06:30;;;;;;;20.35;16.98;;;;;;;9.05;72.33;99971.72;5095659;28;20028;-50
2022/12/27 07:08:57;;;;;;;18.85;14.75;;;;;;;8.48;73.88;99975.72;5094534;28;20169;-49
2022/12/27 07:11:23;;;;;;;6.65;4.55;;;;;;;8.36;75.52;99969.09;5094186;28;20028;-49
2022/12/27 07:13:52;;;;;;;16.95;11.15;;;;;;;8.51;76.13;99972.81;5095491;28;20398;-47
2022/12/27 07:16:24;;;;;;;17.55;12.60;;;;;;;8.72;76.07;99974.22;5095361;28;20028;-47
2022/12/27 07:18:49;;;;;;;9.88;4.35;;;;;;;8.80;75.37;99967.22;5094096;28;20032;-49
2022/12/27 07:21:19;;;;;;;7.68;4.85;;;;;;;8.59;75.19;99978.09;5094029;28;20138;-49
2022/12/27 07:23:44;;;;;;;5.57;3.55;;;;;;;8.41;75.49;99982.56;5093968;28;20039;-49
2022/12/27 07:26:14;;;;;;;7.13;3.78;;;;;;;8.22;75.63;99977.50;5094940;28;20132;-49
2022/12/27 07:28:40;;;;;;;26.20;13.27;;;;;;;8.06;75.93;99986.84;5095166;28;20020;-49
2022/12/27 07:31:17;;;;;;;19.20;15.23;;;;;;;7.99;76.47;99988.44;5095137;28;20027;-49
2022/12/27 07:33:43;;;;;;;19.77;14.50;;;;;;;8.02;77.12;99992.56;5095161;28;20030;-49
2022/12/27 07:36:13;;;;;;;22.08;13.73;;;;;;;8.28;77.67;99987.34;5093690;28;20493;-49
2022/12/27 07:38:38;;;;;;;26.70;20.73;;;;;;;8.87;77.20;99992.78;5094969;28;20024;-49
2022/12/27 07:41:04;;;;;;;25.77;21.05;;;;;;;9.44;75.86;99989.50;5093598;28;20024;-49
2022/12/27 07:43:34;;;;;;;27.65;23.05;;;;;;;9.85;74.74;99985.16;5094917;28;20020;-49
2022/12/27 07:46:07;;;;;;;29.58;21.80;;;;;;;10.45;73.34;99984.00;5095082;28;20381;-50
2022/12/27 07:48:33;;;;;;;35.75;28.17;;;;;;;11.09;71.61;99985.75;5094847;28;20020;-47
2022/12/27 07:50:59;;;;;;;27.23;20.33;;;;;;;11.68;69.85;99986.06;5093466;28;20114;-47
2022/12/27 07:53:24;;;;;;;19.13;13.10;;;;;;;11.88;67.47;99982.97;5094748;28;20430;-47
2022/12/27 07:55:50;;;;;;;16.90;13.52;;;;;;;11.64;67.04;99995.28;5093333;28;20032;-47
2022/12/27 07:58:17;;;;;;;21.05;14.68;;;;;;;11.47;67.22;99989.34;5092488;28;20025;-47
2022/12/27 08:00:44;;;;;;;20.70;13.02;;;;;;;11.40;67.48;99989.19;5093118;28;20020;-47
2022/12/27 08:03:10;;;;;;;37.10;31.52;;;;;;;11.53;67.61;99990.44;5094561;28;20401;-49
2022/12/27 08:05:36;;;;;;;21.95;14.45;;;;;;;11.59;66.60;99992.38;5093146;28;20028;-47
2022/12/27 08:08:02;;;;;;;20.92;17.00;;;;;;;11.47;66.57;99994.59;5094482;28;20035;-47
2022/12/27 08:10:28;;;;;;;40.15;35.25;;;;;;;11.45;66.53;99996.56;5094376;28;20413;-47
2022/12/27 08:12:53;;;;;;;18.95;10.82;;;;;;;11.34;66.89;99996.97;5094334;28;20028;-47
2022/12/27 08:15:20;;;;;;;30.77;21.13;;;;;;;11.31;66.90;99992.88;5094317;28;20056;-47
2022/12/27 08:17:45;;;;;;;38.10;33.75;;;;;;;11.25;66.73;99990.94;5094154;28;20102;-47
2022/12/27 08:20:14;;;;;;;48.72;43.45;;;;;;;11.19;66.67;99992.44;5092863;28;20561;-47
2022/12/27 08:22:40;;;;;;;30.63;26.10;;;;;;;11.29;66.97;99992.22;5094391;28;20028;-47
2022/12/27 08:25:06;;;;;;;23.50;21.20;;;;;;;11.56;65.67;99990.91;5092797;28;20033;-47
2022/12/27 08:27:32;;;;;;;21.25;16.98;;;;;;;11.79;64.61;99985.66;5092502;28;20065;-47
2022/12/27 08:29:57;;;;;;;20.15;16.80;;;;;;;12.55;62.69;99983.00;5093030;28;20132;-47
2022/12/27 08:32:23;;;;;;;31.80;28.35;;;;;;;13.41;61.48;99985.13;5094229;28;20020;-47
2022/12/27 08:34:49;;;;;;;22.65;20.35;;;;;;;14.27;59.36;99979.81;5093938;28;20028;-47
2022/12/27 08:37:14;;;;;;;17.30;14.55;;;;;;;15.02;56.81;99982.69;5092452;28;20028;-47
2022/12/27 08:39:41;;;;;;;29.55;26.58;;;;;;;15.59;54.88;99980.59;5094139;28;20152;-47
2022/12/27 08:42:11;;;;;;;20.13;15.88;;;;;;;16.02;53.63;99976.78;5093786;28;20024;-47
2022/12/27 08:44:36;;;;;;;14.65;11.43;;;;;;;16.18;51.71;99973.75;5092405;28;20031;-47
2022/12/27 08:47:03;;;;;;;23.42;20.20;;;;;;;16.08;52.71;99979.47;5093697;28;20024;-47
2022/12/27 08:49:29;;;;;;;19.08;8.77;;;;;;;16.24;51.67;99983.53;5093649;28;20059;-47
2022/12/27 08:51:54;;;;;;;13.68;9.25;;;;;;;16.09;51.57;99981.06;5092224;28;20056;-48
2022/12/27 08:54:20;;;;;;;10.43;7.38;;;;;;;16.07;52.19;99982.31;5092280;28;20020;-47
2022/12/27 08:56:46;;;;;;;13.68;5.80;;;;;;;16.51;51.03;99986.13;5093428;28;20027;-47
2022/12/27 08:59:11;;;;;;;16.58;10.68;;;;;;;16.83;50.57;99984.44;5093400;28;20020;-47
2022/12/27 09:01:37;;;;;;;12.75;11.23;;;;;;;17.00;49.28;99979.47;5092041;28;20055;-47
2022/12/27 09:04:03;;;;;;;22.77;8.63;;;;;;;16.85;49.62;99979.75;5093623;28;20024;-47
2022/12/27 09:06:29;;;;;;;11.02;9.50;;;;;;;16.82;48.76;99977.53;5093483;28;20027;-45
2022/12/27 09:08:55;;;;;;;21.48;15.15;;;;;;;16.89;48.73;99980.97;5093288;28;20103;-45
2022/12/27 09:11:23;;;;;;;25.73;19.48;;;;;;;17.07;48.54;99982.94;5091780;28;20069;-45
2022/12/27 09:13:49;;;;;;;16.08;12.25;;;;;;;17.53;47.63;99973.09;5093161;28;20417;-45
2022/12/27 09:16:18;;;;;;;13.40;8.15;;;;;;;17.87;46.21;99971.06;5092975;28;20027;-45
2022/12/27 09:18:47;;;;;;;14.32;9.73;;;;;;;18.16;45.52;99977.56;5093026;28;20157;-45
2022/12/27 09:21:13;;;;;;;16.15;13.77;;;;;;;18.50;45.62;99976.19;5092992;28;20403;-45
2022/12/27 09:23:40;;;;;;;15.73;10.07;;;;;;;18.93;44.51;99971.88;5091675;28;20021;-45
2022/12/27 09:26:12;;;;;;;15.15;10.93;;;;;;;19.14;43.70;99975.91;5092719;28;20091;-45
2022/12/27 09:28:38;;;;;;;10.18;9.18;;;;;;;19.08;43.13;99982.94;5092894;28;20379;-45
2022/12/27 09:31:04;;;;;;;11.07;8.10;;;;;;;19.07;43.13;99983.16;5091552;28;20028;-45
2022/12/27 09:33:31;;;;;;;12.77;9.93;;;;;;;19.43;44.27;99984.13;5092766;28;20113;-46
2022/12/27 09:36:01;;;;;;;14.75;8.18;;;;;;;19.86;44.93;99975.94;5092843;28;20028;-45
2022/12/27 09:38:27;;;;;;;16.00;8.45;;;;;;;20.27;43.76;99974.22;5092658;28;20028;-45
2022/12/27 09:40:55;;;;;;;17.30;15.43;;;;;;;20.79;41.98;99980.69;5092931;28;20024;-45
2022/12/27 09:43:31;;;;;;;12.40;6.40;;;;;;;21.23;41.11;99971.13;5092854;28;20051;-46
2022/12/27 09:45:58;;;;;;;18.35;12.73;;;;;;;21.80;39.89;99975.63;5092608;28;20050;-46
2022/12/27 09:48:33;;;;;;;103.47;91.13;;;;;;;22.07;39.62;99975.78;5092519;28;20042;-46
2022/12/27 09:51:10;;;;;;;250.52;214.68;;;;;;;22.35;38.80;99984.75;5091228;28;20118;-46
2022/12/27 09:53:45;;;;;;;26.98;21.00;;;;;;;22.56;37.89;99990.38;5092426;28;20036;-46
2022/12/27 09:56:13;;;;;;;21.45;19.05;;;;;;;22.92;37.62;99983.63;5092400;28;20042;-47
2022/12/27 09:58:54;;;;;;;22.23;11.55;;;;;;;23.45;37.07;99984.75;5091101;28;20021;-45
2022/12/27 10:01:25;;;;;;;17.77;9.52;;;;;;;23.99;36.17;99983.91;5092218;28;20024;-46
2022/12/27 10:03:51;;;;;;;16.88;8.38;;;;;;;24.37;34.68;99986.56;5090996;28;20062;-46
2022/12/27 10:06:28;;;;;;;29.83;18.15;;;;;;;24.52;35.50;99979.41;5090945;28;20054;-46
2022/12/27 10:09:02;;;;;;;14.70;6.60;;;;;;;24.60;34.39;99982.69;5092291;28;20028;-46
2022/12/27 10:11:50;;;;;;;16.27;7.37;;;;;;;24.63;35.17;99982.16;5092264;28;20031;-46
2022/12/27 10:14:29;;;;;;;8.27;5.28;;;;;;;24.55;34.20;99985.34;5092095;28;20031;-46
2022/12/27 10:17:10;;;;;;;11.40;8.77;;;;;;;24.59;35.04;99981.06;5090772;28;20500;-46
2022/12/27 10:20:02;;;;;;;16.05;14.18;;;;;;;24.70;34.56;99985.41;5073993;28;20177;-46
2022/12/27 10:22:32;;;;;;;14.13;10.13;;;;;;;24.86;33.98;99975.56;5091524;28;20032;-46
2022/12/27 10:25:01;;;;;;;10.52;9.48;;;;;;;24.87;34.17;99972.63;5092256;28;20035;-46
2022/12/27 10:27:28;;;;;;;14.32;7.75;;;;;;;24.90;34.19;99968.59;5090392;28;20047;-46
2022/12/27 10:29:56;;;;;;;8.98;4.70;;;;;;;24.81;33.93;99968.28;5073832;28;20016;-46
2022/12/27 10:32:22;;;;;;;9.40;4.10;;;;;;;24.89;33.64;99967.78;5090560;28;20016;-46
2022/12/27 10:34:53;;;;;;;5.55;3.70;;;;;;;24.47;33.89;99963.28;5090646;28;20034;-46
2022/12/27 10:37:19;;;;;;;5.32;3.03;;;;;;;24.36;34.14;99966.97;5090672;28;20615;-46
2022/12/27 10:39:45;;;;;;;11.00;5.47;;;;;;;24.49;34.57;99966.50;5091873;28;20111;-46
2022/12/27 10:42:32;;;;;;;10.48;2.88;;;;;;;24.49;33.57;99966.50;5090433;28;20028;-46
2022/12/27 10:45:23;;;;;;;5.85;2.80;;;;;;;24.01;33.55;99964.88;5091900;28;20023;-45
2022/12/27 10:47:51;;;;;;;6.47;2.95;;;;;;;23.44;34.03;99971.59;5091786;28;20020;-46
2022/12/27 10:50:18;;;;;;;7.80;2.42;;;;;;;22.85;35.11;99965.06;5091688;28;20099;-46
2022/12/27 10:52:44;;;;;;;9.63;5.70;;;;;;;22.33;36.88;99968.97;5091662;28;20070;-46
2022/12/27 10:55:33;;;;;;;13.77;5.18;;;;;;;21.82;38.03;99967.38;5091698;28;20262;-46
2022/12/27 10:58:19;;;;;;;8.70;4.55;;;;;;;21.98;38.22;99966.53;5090335;28;20425;-46
2022/12/27 11:00:53;;;;;;;15.15;6.07;;;;;;;22.67;37.16;99963.50;5091627;28;20035;-46
2022/12/27 11:03:19;;;;;;;11.60;4.13;;;;;;;23.11;36.58;99962.72;5090330;28;20398;-46
2022/12/27 11:06:03;;;;;;;9.45;4.22;;;;;;;23.27;36.23;99961.81;5091584;28;20028;-46
2022/12/27 11:08:29;;;;;;;10.70;4.03;;;;;;;22.92;35.53;99962.22;5091651;28;20032;-46
2022/12/27 11:11:21;;;;;;;14.68;6.25;;;;;;;22.91;36.83;99945.31;5091790;28;20023;-47
2022/12/27 11:13:47;;;;;;;10.63;4.40;;;;;;;23.33;35.95;99951.97;5091569;28;20031;-46
2022/12/27 11:16:39;;;;;;;6.30;3.10;;;;;;;23.51;35.83;99950.78;5091327;28;20028;-46
2022/12/27 11:19:05;;;;;;;8.05;3.63;;;;;;;23.76;35.18;99946.69;5091597;28;20059;-46
2022/12/27 11:21:31;;;;;;;5.78;2.58;;;;;;;23.79;34.95;99944.34;5091462;28;20059;-46
2022/12/27 11:24:01;;;;;;;8.70;4.38;;;;;;;23.53;34.79;99944.09;5091444;28;20024;-46
2022/12/27 11:26:32;;;;;;;7.88;4.03;;;;;;;23.14;35.80;99943.47;5089874;28;20051;-46
2022/12/27 11:29:00;;;;;;;16.00;5.60;;;;;;;23.26;36.02;99944.13;5091499;28;20401;-47
2022/12/27 11:31:39;;;;;;;11.35;3.88;;;;;;;22.69;36.10;99941.84;5090378;28;20044;-46
2022/12/27 11:34:15;;;;;;;6.53;3.55;;;;;;;22.38;36.72;99938.81;5092483;28;20532;-46
2022/12/27 11:36:46;;;;;;;9.50;3.88;;;;;;;22.21;37.27;99944.16;5093755;28;20028;-46
2022/12/27 11:39:41;;;;;;;14.38;4.13;;;;;;;21.97;37.85;99946.19;5093811;28;20036;-46
2022/12/27 11:42:25;;;;;;;11.88;4.97;;;;;;;21.71;38.51;99939.66;5093782;28;20031;-46
2022/12/27 11:45:21;;;;;;;10.70;3.78;;;;;;;21.51;39.14;99942.78;5093752;28;20032;-46
2022/12/27 11:48:22;;;;;;;12.32;4.72;;;;;;;21.51;39.75;99940.94;5095270;28;20371;-46
2022/12/27 11:51:24;;;;;;;7.63;3.92;;;;;;;21.60;39.02;99940.56;5093134;28;20043;-46
2022/12/27 11:54:00;;;;;;;6.38;3.90;;;;;;;21.89;38.76;99938.59;5076610;28;20123;-46
2022/12/27 11:56:28;;;;;;;11.50;5.03;;;;;;;22.27;38.44;99937.03;5093345;28;20573;-46
2022/12/27 11:59:18;;;;;;;6.30;4.63;;;;;;;22.63;37.86;99926.81;5094727;28;20035;-46
2022/12/27 12:02:04;;;;;;;9.57;3.55;;;;;;;23.00;37.13;99928.81;5093370;28;20039;-46
2022/12/27 12:04:45;;;;;;;7.85;3.42;;;;;;;23.48;36.40;99929.84;5094873;28;20081;-47
2022/12/27 12:07:48;;;;;;;6.85;3.10;;;;;;;23.57;35.98;99924.84;5094562;28;20024;-46
2022/12/27 12:10:17;;;;;;;9.35;3.67;;;;;;;23.43;36.33;99921.78;5094391;28;20069;-46
2022/12/27 12:13:11;;;;;;;6.88;3.22;;;;;;;23.29;36.45;99927.53;5093123;28;20020;-46
2022/12/27 12:16:10;;;;;;;14.10;5.32;;;;;;;23.36;36.65;99921.16;5093031;28;20028;-46
2022/12/27 12:18:48;;;;;;;9.13;3.90;;;;;;;23.43;36.15;99906.50;5094415;28;20582;-46
2022/12/27 12:21:32;;;;;;;11.05;3.50;;;;;;;23.21;36.46;99911.94;5092980;28;20035;-46
2022/12/27 12:24:18;;;;;;;8.25;3.53;;;;;;;22.88;36.75;99916.41;5094494;28;20032;-47
2022/12/27 12:27:21;;;;;;;10.38;4.47;;;;;;;22.77;37.45;99909.31;5092612;28;20485;-46
2022/12/27 12:30:05;;;;;;;8.90;3.20;;;;;;;22.78;36.98;99900.22;5092777;28;20398;-46
2022/12/27 12:33:16;;;;;;;18.80;6.80;;;;;;;22.87;37.43;99905.94;5094095;28;20024;-46
2022/12/27 12:36:08;;;;;;;6.75;3.83;;;;;;;22.74;37.10;99899.91;5090093;28;20044;-46
2022/12/27 12:38:36;;;;;;;7.40;3.30;;;;;;;22.57;37.42;99895.69;5092568;28;20440;-46
2022/12/27 12:41:28;;;;;;;8.43;4.45;;;;;;;22.46;37.71;99902.78;5093831;28;20035;-46
2022/12/27 12:44:30;;;;;;;11.52;4.15;;;;;;;22.16;37.89;99900.50;5093867;28;20378;-46
2022/12/27 12:47:28;;;;;;;7.55;3.50;;;;;;;22.04;38.85;99893.38;5093744;28;20398;-46
2022/12/27 12:50:03;;;;;;;5.70;2.63;;;;;;;22.16;37.89;99881.78;5092383;28;20490;-46
2022/12/27 12:53:00;;;;;;;4.78;2.47;;;;;;;21.72;37.74;99890.50;5092444;28;20036;-46
2022/12/27 12:55:32;;;;;;;8.43;2.22;;;;;;;21.67;38.14;99883.25;5081483;28;20032;-47
2022/12/27 12:58:09;;;;;;;9.07;2.78;;;;;;;21.58;38.14;99883.88;5093664;28;20433;-46
2022/12/27 13:00:49;;;;;;;42.83;8.10;;;;;;;21.82;38.49;99885.31;5093520;28;20034;-46
2022/12/27 13:03:20;;;;;;;4.45;2.35;;;;;;;21.81;37.20;99883.72;5093410;28;20032;-46
2022/12/27 13:06:02;;;;;;;9.00;2.60;;;;;;;21.37;37.27;99885.38;5092085;28;20020;-46
2022/12/27 13:08:36;;;;;;;9.77;2.10;;;;;;;21.19;37.83;99894.41;5092059;28;20036;-46
2022/12/27 13:11:20;;;;;;;9.73;2.40;;;;;;;20.79;38.31;99901.44;5093283;28;20028;-46
2022/12/27 13:13:54;;;;;;;8.07;2.22;;;;;;;20.29;38.45;99899.34;5093322;28;20455;-46
2022/12/27 13:16:39;;;;;;;8.43;1.95;;;;;;;19.62;39.43;99902.31;5091940;28;20031;-46
2022/12/27 13:19:37;;;;;;;9.02;2.28;;;;;;;18.94;40.81;99896.34;5093087;28;20117;-46
2022/12/27 13:22:19;;;;;;;4.45;2.50;;;;;;;18.51;42.39;99891.94;5091734;28;20031;-46